sensor_id;sensor_type;location;lat;lon;timestamp;P1;durP1;ratioP1;P2;durP2;ratioP2
3911;SDS011;1971;51.778;10.330;2023-08-08T00:01:41;5.23;;;3.33;;
3911;SDS011;1971;51.778;10.330;2023-08-08T00:04:12;5.07;;;2.87;;
3911;SDS011;1971;51.778;10.330;2023-08-08T00:06:42;4.93;;;3.97;;
3911;SDS011;1971;51.778;10.330;2023-08-08T00:09:15;5.20;;;3.30;;
3911;SDS011;1971;51.778;10.330;2023-08-08T00:11:45;4.07;;;3.77;;
3911;SDS011;1971;51.778;10.330;2023-08-08T00:14:16;5.80;;;3.83;;
3911;SDS011;1971;51.778;10.330;2023-08-08T00:16:46;3.73;;;3.37;;
3911;SDS011;1971;51.778;10.330;2023-08-08T00:19:16;5.10;;;3.50;;
3911;SDS011;1971;51.778;10.330;2023-08-08T00:21:46;3.83;;;3.50;;
3911;SDS011;1971;51.778;10.330;2023-08-08T00:24:19;4.77;;;4.33;;
3911;SDS011;1971;51.778;10.330;2023-08-08T00:26:49;3.30;;;3.00;;
3911;SDS011;1971;51.778;10.330;2023-08-08T00:29:19;3.60;;;3.30;;
3911;SDS011;1971;51.778;10.330;2023-08-08T00:31:49;4.93;;;4.23;;
3911;SDS011;1971;51.778;10.330;2023-08-08T00:34:20;4.57;;;4.00;;
3911;SDS011;1971;51.778;10.330;2023-08-08T00:36:51;4.57;;;3.63;;
3911;SDS011;1971;51.778;10.330;2023-08-08T00:39:24;4.73;;;4.07;;
3911;SDS011;1971;51.778;10.330;2023-08-08T00:41:55;3.43;;;3.20;;
3911;SDS011;1971;51.778;10.330;2023-08-08T00:44:26;3.73;;;3.47;;
3911;SDS011;1971;51.778;10.330;2023-08-08T00:46:56;5.17;;;3.50;;
3911;SDS011;1971;51.778;10.330;2023-08-08T00:49:27;2.93;;;2.57;;
3911;SDS011;1971;51.778;10.330;2023-08-08T00:51:58;3.70;;;3.40;;
3911;SDS011;1971;51.778;10.330;2023-08-08T00:54:31;4.93;;;4.00;;
3911;SDS011;1971;51.778;10.330;2023-08-08T00:57:01;3.93;;;3.53;;
3911;SDS011;1971;51.778;10.330;2023-08-08T00:59:32;5.80;;;3.73;;
3911;SDS011;1971;51.778;10.330;2023-08-08T01:02:02;5.03;;;3.70;;
3911;SDS011;1971;51.778;10.330;2023-08-08T01:04:32;5.10;;;4.20;;
3911;SDS011;1971;51.778;10.330;2023-08-08T01:07:06;4.40;;;4.00;;
3911;SDS011;1971;51.778;10.330;2023-08-08T01:09:46;4.20;;;3.77;;
3911;SDS011;1971;51.778;10.330;2023-08-08T01:12:34;6.80;;;4.30;;
3911;SDS011;1971;51.778;10.330;2023-08-08T01:15:09;5.90;;;4.97;;
3911;SDS011;1971;51.778;10.330;2023-08-08T01:17:41;4.67;;;3.83;;
3911;SDS011;1971;51.778;10.330;2023-08-08T01:20:13;5.63;;;4.43;;
3911;SDS011;1971;51.778;10.330;2023-08-08T01:22:45;5.00;;;4.50;;
3911;SDS011;1971;51.778;10.330;2023-08-08T01:25:25;5.30;;;4.63;;
3911;SDS011;1971;51.778;10.330;2023-08-08T01:27:55;6.23;;;4.20;;
3911;SDS011;1971;51.778;10.330;2023-08-08T01:30:26;4.77;;;4.37;;
3911;SDS011;1971;51.778;10.330;2023-08-08T01:32:59;5.00;;;4.60;;
3911;SDS011;1971;51.778;10.330;2023-08-08T01:35:30;7.43;;;5.10;;
3911;SDS011;1971;51.778;10.330;2023-08-08T01:38:04;5.03;;;4.63;;
3911;SDS011;1971;51.778;10.330;2023-08-08T01:40:41;5.90;;;5.10;;
3911;SDS011;1971;51.778;10.330;2023-08-08T01:43:14;5.90;;;5.40;;
3911;SDS011;1971;51.778;10.330;2023-08-08T01:45:45;8.00;;;5.27;;
3911;SDS011;1971;51.778;10.330;2023-08-08T01:48:15;6.23;;;5.50;;
3911;SDS011;1971;51.778;10.330;2023-08-08T01:50:45;9.33;;;5.40;;
3911;SDS011;1971;51.778;10.330;2023-08-08T01:53:16;8.47;;;5.10;;
3911;SDS011;1971;51.778;10.330;2023-08-08T01:55:49;9.63;;;6.17;;
3911;SDS011;1971;51.778;10.330;2023-08-08T01:58:19;6.70;;;5.33;;
3911;SDS011;1971;51.778;10.330;2023-08-08T02:00:50;5.80;;;5.33;;
3911;SDS011;1971;51.778;10.330;2023-08-08T02:03:20;6.37;;;5.80;;
3911;SDS011;1971;51.778;10.330;2023-08-08T02:05:50;6.60;;;6.00;;
3911;SDS011;1971;51.778;10.330;2023-08-08T02:08:20;7.60;;;6.93;;
3911;SDS011;1971;51.778;10.330;2023-08-08T02:10:53;8.23;;;7.50;;
3911;SDS011;1971;51.778;10.330;2023-08-08T02:13:23;8.47;;;7.70;;
3911;SDS011;1971;51.778;10.330;2023-08-08T02:15:53;8.27;;;7.60;;
3911;SDS011;1971;51.778;10.330;2023-08-08T02:18:25;7.53;;;6.93;;
3911;SDS011;1971;51.778;10.330;2023-08-08T02:20:55;8.70;;;7.80;;
3911;SDS011;1971;51.778;10.330;2023-08-08T02:23:26;8.30;;;7.60;;
3911;SDS011;1971;51.778;10.330;2023-08-08T02:25:59;9.00;;;8.10;;
3911;SDS011;1971;51.778;10.330;2023-08-08T02:28:30;7.20;;;6.70;;
3911;SDS011;1971;51.778;10.330;2023-08-08T02:31:00;9.30;;;7.97;;
3911;SDS011;1971;51.778;10.330;2023-08-08T02:33:30;8.93;;;6.90;;
3911;SDS011;1971;51.778;10.330;2023-08-08T02:36:01;9.30;;;7.50;;
3911;SDS011;1971;51.778;10.330;2023-08-08T02:38:31;8.80;;;8.00;;
3911;SDS011;1971;51.778;10.330;2023-08-08T02:41:04;9.07;;;8.37;;
3911;SDS011;1971;51.778;10.330;2023-08-08T02:43:34;8.77;;;8.07;;
3911;SDS011;1971;51.778;10.330;2023-08-08T02:46:05;8.93;;;8.03;;
3911;SDS011;1971;51.778;10.330;2023-08-08T02:48:36;8.87;;;8.13;;
3911;SDS011;1971;51.778;10.330;2023-08-08T02:51:07;8.47;;;7.60;;
3911;SDS011;1971;51.778;10.330;2023-08-08T02:53:37;7.93;;;6.93;;
3911;SDS011;1971;51.778;10.330;2023-08-08T02:56:10;8.00;;;7.30;;
3911;SDS011;1971;51.778;10.330;2023-08-08T02:58:41;9.43;;;8.27;;
3911;SDS011;1971;51.778;10.330;2023-08-08T03:01:12;8.37;;;7.50;;
3911;SDS011;1971;51.778;10.330;2023-08-08T03:03:45;9.07;;;8.23;;
3911;SDS011;1971;51.778;10.330;2023-08-08T03:06:18;8.23;;;6.60;;
3911;SDS011;1971;51.778;10.330;2023-08-08T03:08:50;6.87;;;6.10;;
3911;SDS011;1971;51.778;10.330;2023-08-08T03:11:23;7.83;;;7.13;;
3911;SDS011;1971;51.778;10.330;2023-08-08T03:13:54;7.63;;;6.87;;
3911;SDS011;1971;51.778;10.330;2023-08-08T03:16:25;7.00;;;6.40;;
3911;SDS011;1971;51.778;10.330;2023-08-08T03:18:55;8.43;;;7.57;;
3911;SDS011;1971;51.778;10.330;2023-08-08T03:21:25;6.43;;;5.90;;
3911;SDS011;1971;51.778;10.330;2023-08-08T03:23:56;6.80;;;6.30;;
3911;SDS011;1971;51.778;10.330;2023-08-08T03:26:29;9.73;;;6.40;;
3911;SDS011;1971;51.778;10.330;2023-08-08T03:28:59;7.57;;;5.63;;
3911;SDS011;1971;51.778;10.330;2023-08-08T03:31:37;8.80;;;5.90;;
3911;SDS011;1971;51.778;10.330;2023-08-08T03:34:07;8.30;;;6.63;;
3911;SDS011;1971;51.778;10.330;2023-08-08T03:36:39;5.80;;;5.30;;
3911;SDS011;1971;51.778;10.330;2023-08-08T03:39:10;5.70;;;5.27;;
3911;SDS011;1971;51.778;10.330;2023-08-08T03:41:42;6.53;;;5.83;;
3911;SDS011;1971;51.778;10.330;2023-08-08T03:44:13;6.30;;;5.70;;
3911;SDS011;1971;51.778;10.330;2023-08-08T03:46:43;5.53;;;4.93;;
3911;SDS011;1971;51.778;10.330;2023-08-08T03:49:14;4.97;;;4.63;;
3911;SDS011;1971;51.778;10.330;2023-08-08T03:51:44;5.97;;;4.83;;
3911;SDS011;1971;51.778;10.330;2023-08-08T03:54:15;5.10;;;4.70;;
3911;SDS011;1971;51.778;10.330;2023-08-08T03:56:49;5.57;;;4.60;;
3911;SDS011;1971;51.778;10.330;2023-08-08T03:59:20;5.30;;;4.90;;
3911;SDS011;1971;51.778;10.330;2023-08-08T04:01:50;5.33;;;4.93;;
3911;SDS011;1971;51.778;10.330;2023-08-08T04:04:20;4.63;;;4.23;;
3911;SDS011;1971;51.778;10.330;2023-08-08T04:06:50;4.17;;;3.87;;
3911;SDS011;1971;51.778;10.330;2023-08-08T04:09:21;5.00;;;4.60;;
3911;SDS011;1971;51.778;10.330;2023-08-08T04:11:53;6.07;;;3.70;;
3911;SDS011;1971;51.778;10.330;2023-08-08T04:14:24;4.40;;;3.70;;
3911;SDS011;1971;51.778;10.330;2023-08-08T04:16:54;4.20;;;3.87;;
3911;SDS011;1971;51.778;10.330;2023-08-08T04:19:25;4.37;;;4.07;;
3911;SDS011;1971;51.778;10.330;2023-08-08T04:21:55;5.30;;;3.67;;
3911;SDS011;1971;51.778;10.330;2023-08-08T04:24:26;4.13;;;3.80;;
3911;SDS011;1971;51.778;10.330;2023-08-08T04:26:59;3.40;;;3.20;;
3911;SDS011;1971;51.778;10.330;2023-08-08T04:29:29;3.27;;;3.00;;
3911;SDS011;1971;51.778;10.330;2023-08-08T04:31:59;4.57;;;4.10;;
3911;SDS011;1971;51.778;10.330;2023-08-08T04:34:29;3.47;;;3.27;;
3911;SDS011;1971;51.778;10.330;2023-08-08T04:36:59;3.13;;;2.93;;
3911;SDS011;1971;51.778;10.330;2023-08-08T04:39:29;3.40;;;3.10;;
3911;SDS011;1971;51.778;10.330;2023-08-08T04:42:03;3.53;;;3.33;;
3911;SDS011;1971;51.778;10.330;2023-08-08T04:44:34;3.93;;;3.63;;
3911;SDS011;1971;51.778;10.330;2023-08-08T04:47:04;3.27;;;3.07;;
3911;SDS011;1971;51.778;10.330;2023-08-08T04:49:34;4.37;;;4.00;;
3911;SDS011;1971;51.778;10.330;2023-08-08T04:52:05;4.00;;;3.37;;
3911;SDS011;1971;51.778;10.330;2023-08-08T04:54:35;3.43;;;3.20;;
3911;SDS011;1971;51.778;10.330;2023-08-08T04:57:08;3.73;;;3.43;;
3911;SDS011;1971;51.778;10.330;2023-08-08T04:59:39;5.70;;;3.60;;
3911;SDS011;1971;51.778;10.330;2023-08-08T05:02:09;3.80;;;3.50;;
3911;SDS011;1971;51.778;10.330;2023-08-08T05:04:41;3.10;;;2.90;;
3911;SDS011;1971;51.778;10.330;2023-08-08T05:07:12;4.20;;;3.90;;
3911;SDS011;1971;51.778;10.330;2023-08-08T05:09:42;3.87;;;3.43;;
3911;SDS011;1971;51.778;10.330;2023-08-08T05:12:15;4.60;;;3.27;;
3911;SDS011;1971;51.778;10.330;2023-08-08T05:14:46;3.60;;;3.30;;
3911;SDS011;1971;51.778;10.330;2023-08-08T05:17:16;4.67;;;4.27;;
3911;SDS011;1971;51.778;10.330;2023-08-08T05:19:46;3.70;;;3.50;;
3911;SDS011;1971;51.778;10.330;2023-08-08T05:22:17;4.27;;;3.90;;
3911;SDS011;1971;51.778;10.330;2023-08-08T05:24:47;6.27;;;4.00;;
3911;SDS011;1971;51.778;10.330;2023-08-08T05:27:20;4.07;;;3.77;;
3911;SDS011;1971;51.778;10.330;2023-08-08T05:29:50;4.60;;;4.20;;
3911;SDS011;1971;51.778;10.330;2023-08-08T05:32:20;4.90;;;4.43;;
3911;SDS011;1971;51.778;10.330;2023-08-08T05:34:51;4.10;;;3.80;;
3911;SDS011;1971;51.778;10.330;2023-08-08T05:37:22;4.73;;;4.37;;
3911;SDS011;1971;51.778;10.330;2023-08-08T05:39:53;5.10;;;4.60;;
3911;SDS011;1971;51.778;10.330;2023-08-08T05:42:26;4.30;;;3.90;;
3911;SDS011;1971;51.778;10.330;2023-08-08T05:44:58;4.80;;;4.40;;
3911;SDS011;1971;51.778;10.330;2023-08-08T05:47:28;4.20;;;3.83;;
3911;SDS011;1971;51.778;10.330;2023-08-08T05:49:59;4.10;;;3.83;;
3911;SDS011;1971;51.778;10.330;2023-08-08T05:52:29;4.40;;;4.10;;
3911;SDS011;1971;51.778;10.330;2023-08-08T05:55:00;4.47;;;4.20;;
3911;SDS011;1971;51.778;10.330;2023-08-08T05:57:33;4.43;;;4.13;;
3911;SDS011;1971;51.778;10.330;2023-08-08T06:00:05;4.60;;;4.30;;
3911;SDS011;1971;51.778;10.330;2023-08-08T06:02:41;5.80;;;4.50;;
3911;SDS011;1971;51.778;10.330;2023-08-08T06:05:11;4.50;;;4.20;;
3911;SDS011;1971;51.778;10.330;2023-08-08T06:07:42;5.23;;;4.83;;
3911;SDS011;1971;51.778;10.330;2023-08-08T06:10:13;4.30;;;4.00;;
3911;SDS011;1971;51.778;10.330;2023-08-08T06:12:46;4.30;;;4.00;;
3911;SDS011;1971;51.778;10.330;2023-08-08T06:15:16;4.47;;;4.17;;
3911;SDS011;1971;51.778;10.330;2023-08-08T06:17:46;6.00;;;4.17;;
3911;SDS011;1971;51.778;10.330;2023-08-08T06:20:17;4.43;;;4.10;;
3911;SDS011;1971;51.778;10.330;2023-08-08T06:22:48;3.87;;;3.57;;
3911;SDS011;1971;51.778;10.330;2023-08-08T06:25:18;4.47;;;4.17;;
3911;SDS011;1971;51.778;10.330;2023-08-08T06:27:51;4.47;;;4.07;;
3911;SDS011;1971;51.778;10.330;2023-08-08T06:30:21;4.40;;;3.50;;
3911;SDS011;1971;51.778;10.330;2023-08-08T06:32:52;4.03;;;3.73;;
3911;SDS011;1971;51.778;10.330;2023-08-08T06:35:22;3.70;;;3.40;;
3911;SDS011;1971;51.778;10.330;2023-08-08T06:37:53;3.37;;;3.07;;
3911;SDS011;1971;51.778;10.330;2023-08-08T06:40:23;3.23;;;3.03;;
3911;SDS011;1971;51.778;10.330;2023-08-08T06:42:56;4.37;;;3.47;;
3911;SDS011;1971;51.778;10.330;2023-08-08T06:45:26;3.30;;;3.03;;
3911;SDS011;1971;51.778;10.330;2023-08-08T06:47:57;3.67;;;3.37;;
3911;SDS011;1971;51.778;10.330;2023-08-08T06:50:27;6.40;;;3.50;;
3911;SDS011;1971;51.778;10.330;2023-08-08T06:52:57;3.50;;;3.20;;
3911;SDS011;1971;51.778;10.330;2023-08-08T06:55:27;4.07;;;3.77;;
3911;SDS011;1971;51.778;10.330;2023-08-08T06:58:00;3.90;;;3.33;;
3911;SDS011;1971;51.778;10.330;2023-08-08T07:00:30;3.90;;;3.60;;
3911;SDS011;1971;51.778;10.330;2023-08-08T07:03:00;4.20;;;3.73;;
3911;SDS011;1971;51.778;10.330;2023-08-08T07:05:31;3.70;;;3.40;;
3911;SDS011;1971;51.778;10.330;2023-08-08T07:08:01;5.83;;;3.77;;
3911;SDS011;1971;51.778;10.330;2023-08-08T07:10:32;4.10;;;3.50;;
3911;SDS011;1971;51.778;10.330;2023-08-08T07:13:14;3.83;;;3.53;;
3911;SDS011;1971;51.778;10.330;2023-08-08T07:15:44;4.70;;;4.30;;
3911;SDS011;1971;51.778;10.330;2023-08-08T07:18:15;4.90;;;4.37;;
3911;SDS011;1971;51.778;10.330;2023-08-08T07:20:45;5.33;;;4.10;;
3911;SDS011;1971;51.778;10.330;2023-08-08T07:23:16;5.07;;;4.67;;
3911;SDS011;1971;51.778;10.330;2023-08-08T07:25:46;4.30;;;3.90;;
3911;SDS011;1971;51.778;10.330;2023-08-08T07:28:19;3.93;;;3.63;;
3911;SDS011;1971;51.778;10.330;2023-08-08T07:30:50;4.53;;;4.10;;
3911;SDS011;1971;51.778;10.330;2023-08-08T07:33:20;6.30;;;4.30;;
3911;SDS011;1971;51.778;10.330;2023-08-08T07:35:50;4.17;;;3.87;;
3911;SDS011;1971;51.778;10.330;2023-08-08T07:38:20;4.20;;;3.90;;
3911;SDS011;1971;51.778;10.330;2023-08-08T07:40:51;5.30;;;4.20;;
3911;SDS011;1971;51.778;10.330;2023-08-08T07:43:24;4.93;;;3.97;;
3911;SDS011;1971;51.778;10.330;2023-08-08T07:45:54;5.93;;;4.47;;
3911;SDS011;1971;51.778;10.330;2023-08-08T07:48:24;4.17;;;3.83;;
3911;SDS011;1971;51.778;10.330;2023-08-08T07:50:55;4.70;;;4.37;;
3911;SDS011;1971;51.778;10.330;2023-08-08T07:53:25;5.00;;;4.60;;
3911;SDS011;1971;51.778;10.330;2023-08-08T07:55:56;4.50;;;4.10;;
3911;SDS011;1971;51.778;10.330;2023-08-08T07:58:28;5.13;;;4.20;;
3911;SDS011;1971;51.778;10.330;2023-08-08T08:00:59;4.30;;;3.90;;
3911;SDS011;1971;51.778;10.330;2023-08-08T08:03:29;4.23;;;3.83;;
3911;SDS011;1971;51.778;10.330;2023-08-08T08:06:00;10.00;;;3.70;;
3911;SDS011;1971;51.778;10.330;2023-08-08T08:08:30;4.17;;;3.77;;
3911;SDS011;1971;51.778;10.330;2023-08-08T08:11:01;4.10;;;3.67;;
3911;SDS011;1971;51.778;10.330;2023-08-08T08:13:33;3.77;;;3.47;;
3911;SDS011;1971;51.778;10.330;2023-08-08T08:16:03;3.87;;;3.67;;
3911;SDS011;1971;51.778;10.330;2023-08-08T08:18:33;4.60;;;4.30;;
3911;SDS011;1971;51.778;10.330;2023-08-08T08:21:04;4.37;;;4.00;;
3911;SDS011;1971;51.778;10.330;2023-08-08T08:23:34;3.63;;;3.43;;
3911;SDS011;1971;51.778;10.330;2023-08-08T08:26:04;4.23;;;3.93;;
3911;SDS011;1971;51.778;10.330;2023-08-08T08:28:37;4.83;;;4.43;;
3911;SDS011;1971;51.778;10.330;2023-08-08T08:33:52;4.43;;;3.73;;
3911;SDS011;1971;51.778;10.330;2023-08-08T08:36:22;4.60;;;3.10;;
3911;SDS011;1971;51.778;10.330;2023-08-08T08:38:53;4.30;;;4.00;;
3911;SDS011;1971;51.778;10.330;2023-08-08T08:41:25;3.90;;;3.60;;
3911;SDS011;1971;51.778;10.330;2023-08-08T08:43:59;5.50;;;3.90;;
3911;SDS011;1971;51.778;10.330;2023-08-08T08:46:30;3.90;;;3.60;;
3911;SDS011;1971;51.778;10.330;2023-08-08T08:49:02;3.87;;;3.57;;
3911;SDS011;1971;51.778;10.330;2023-08-08T08:51:35;3.17;;;2.93;;
3911;SDS011;1971;51.778;10.330;2023-08-08T08:54:05;5.07;;;3.50;;
3911;SDS011;1971;51.778;10.330;2023-08-08T08:56:35;3.80;;;3.50;;
3911;SDS011;1971;51.778;10.330;2023-08-08T08:59:08;3.87;;;3.57;;
3911;SDS011;1971;51.778;10.330;2023-08-08T09:01:39;4.63;;;3.73;;
3911;SDS011;1971;51.778;10.330;2023-08-08T09:04:09;6.53;;;3.40;;
3911;SDS011;1971;51.778;10.330;2023-08-08T09:06:41;2.93;;;2.70;;
3911;SDS011;1971;51.778;10.330;2023-08-08T09:09:12;3.40;;;3.10;;
3911;SDS011;1971;51.778;10.330;2023-08-08T09:11:43;4.27;;;3.90;;
3911;SDS011;1971;51.778;10.330;2023-08-08T09:14:18;4.17;;;3.63;;
3911;SDS011;1971;51.778;10.330;2023-08-08T09:16:50;4.60;;;3.87;;
3911;SDS011;1971;51.778;10.330;2023-08-08T09:19:21;3.83;;;3.07;;
3911;SDS011;1971;51.778;10.330;2023-08-08T09:21:52;3.47;;;3.17;;
3911;SDS011;1971;51.778;10.330;2023-08-08T09:24:23;3.47;;;3.17;;
3911;SDS011;1971;51.778;10.330;2023-08-08T09:26:54;3.60;;;3.20;;
3911;SDS011;1971;51.778;10.330;2023-08-08T09:29:27;4.23;;;3.83;;
3911;SDS011;1971;51.778;10.330;2023-08-08T09:31:57;3.60;;;3.30;;
3911;SDS011;1971;51.778;10.330;2023-08-08T09:34:28;5.00;;;2.90;;
3911;SDS011;1971;51.778;10.330;2023-08-08T09:36:58;3.13;;;2.80;;
3911;SDS011;1971;51.778;10.330;2023-08-08T09:39:29;4.70;;;3.27;;
3911;SDS011;1971;51.778;10.330;2023-08-08T09:42:01;4.70;;;3.00;;
3911;SDS011;1971;51.778;10.330;2023-08-08T09:44:34;3.30;;;2.97;;
3911;SDS011;1971;51.778;10.330;2023-08-08T09:47:05;5.23;;;4.10;;
3911;SDS011;1971;51.778;10.330;2023-08-08T09:49:35;4.20;;;3.40;;
3911;SDS011;1971;51.778;10.330;2023-08-08T09:52:09;3.50;;;3.17;;
3911;SDS011;1971;51.778;10.330;2023-08-08T09:54:40;4.53;;;4.00;;
3911;SDS011;1971;51.778;10.330;2023-08-08T09:57:12;3.30;;;3.03;;
3911;SDS011;1971;51.778;10.330;2023-08-08T09:59:45;4.80;;;3.93;;
3911;SDS011;1971;51.778;10.330;2023-08-08T10:02:18;4.13;;;3.73;;
3911;SDS011;1971;51.778;10.330;2023-08-08T10:04:49;11.53;;;3.83;;
3911;SDS011;1971;51.778;10.330;2023-08-08T10:07:22;3.60;;;3.30;;
3911;SDS011;1971;51.778;10.330;2023-08-08T10:09:53;3.87;;;3.60;;
3911;SDS011;1971;51.778;10.330;2023-08-08T10:12:23;3.80;;;3.50;;
3911;SDS011;1971;51.778;10.330;2023-08-08T10:14:57;4.50;;;4.20;;
3911;SDS011;1971;51.778;10.330;2023-08-08T10:17:27;6.30;;;3.50;;
3911;SDS011;1971;51.778;10.330;2023-08-08T10:20:06;4.43;;;4.13;;
3911;SDS011;1971;51.778;10.330;2023-08-08T10:22:42;3.87;;;3.40;;
3911;SDS011;1971;51.778;10.330;2023-08-08T10:25:17;4.50;;;4.10;;
3911;SDS011;1971;51.778;10.330;2023-08-08T10:27:49;4.63;;;4.23;;
3911;SDS011;1971;51.778;10.330;2023-08-08T10:30:22;4.20;;;3.87;;
3911;SDS011;1971;51.778;10.330;2023-08-08T10:32:52;5.47;;;3.73;;
3911;SDS011;1971;51.778;10.330;2023-08-08T10:35:34;3.80;;;3.50;;
3911;SDS011;1971;51.778;10.330;2023-08-08T10:38:08;5.20;;;4.00;;
3911;SDS011;1971;51.778;10.330;2023-08-08T10:40:42;4.00;;;3.70;;
3911;SDS011;1971;51.778;10.330;2023-08-08T10:43:13;3.90;;;3.60;;
3911;SDS011;1971;51.778;10.330;2023-08-08T10:45:46;4.20;;;3.90;;
3911;SDS011;1971;51.778;10.330;2023-08-08T10:48:29;4.40;;;4.10;;
3911;SDS011;1971;51.778;10.330;2023-08-08T10:51:05;4.00;;;3.70;;
3911;SDS011;1971;51.778;10.330;2023-08-08T10:53:35;4.40;;;3.67;;
3911;SDS011;1971;51.778;10.330;2023-08-08T10:56:11;4.53;;;3.77;;
3911;SDS011;1971;51.778;10.330;2023-08-08T10:58:46;4.47;;;3.77;;
3911;SDS011;1971;51.778;10.330;2023-08-08T11:01:21;3.87;;;3.57;;
3911;SDS011;1971;51.778;10.330;2023-08-08T11:03:55;5.10;;;3.97;;
3911;SDS011;1971;51.778;10.330;2023-08-08T11:06:27;5.33;;;4.57;;
3911;SDS011;1971;51.778;10.330;2023-08-08T11:09:07;6.07;;;5.47;;
3911;SDS011;1971;51.778;10.330;2023-08-08T11:11:46;4.60;;;4.30;;
3911;SDS011;1971;51.778;10.330;2023-08-08T11:14:21;4.43;;;4.00;;
3911;SDS011;1971;51.778;10.330;2023-08-08T11:17:14;5.47;;;4.93;;
3911;SDS011;1971;51.778;10.330;2023-08-08T11:20:06;7.10;;;6.50;;
